KHIB

Range Regional Airport

Hibbing, Minnesota, USA
METAR KHIB 171553Z AUTO 03007KT 6SM HZ CLR 23/16 A3010 RMK AO2 SLP194 T02280156
Observed Flight Rules
Aug-17 @ 15:53 UTC (60 minutes ago) Visual Flight Rules
Wind Visibility Clouds Conditions
30° at 7 knots 6 miles
  • Clear skies
  • Haze
Temperatures Readings
Current 23°C / 73°F
Dewpoint 16°C / 61°F
Humidity 65%
Altimeter 30.1" Hg
Pressure 1019.4 hPa
Elevation 412
METAR KHIB 171553Z AUTO 03007KT 6SM HZ CLR 23/16 A3010 RMK AO2 SLP194 T02280156
Observed Flight Rules
Aug-17 @ 15:53 UTC
(60 minutes ago)
VFR
Wind Visibility
30° at 7 knots 6 miles
Clouds
  • Clear skies
Conditions
  • Haze
Temperature Dewpoint
23°C / 73°F 16°C / 61°F
Humidity Altimeter Pressure
65% 30.1" Hg 1019.4 hPa